createdAt,value
2023-03-12T00:00:53.578Z,3.85
2023-03-12T00:03:20.491Z,3.40
2023-03-12T00:05:47.310Z,3.40
2023-03-12T00:08:14.528Z,3.10
2023-03-12T00:10:41.943Z,2.85
2023-03-12T00:13:09.164Z,3.25
2023-03-12T00:15:38.773Z,3.08
2023-03-12T00:18:06.153Z,3.53
2023-03-12T00:20:33.913Z,3.08
2023-03-12T00:23:00.980Z,3.20
2023-03-12T00:25:27.893Z,2.53
2023-03-12T00:27:54.991Z,2.83
2023-03-12T00:30:22.069Z,2.40
2023-03-12T00:32:48.915Z,2.53
2023-03-12T00:35:15.843Z,2.53
2023-03-12T00:37:42.611Z,2.50
2023-03-12T00:40:11.529Z,2.20
2023-03-12T00:42:38.322Z,2.40
2023-03-12T00:45:06.240Z,2.30
2023-03-12T00:47:33.062Z,2.30
2023-03-12T00:49:59.957Z,2.25
2023-03-12T00:52:26.734Z,1.92
2023-03-12T00:54:58.371Z,2.15
2023-03-12T00:57:25.550Z,2.17
2023-03-12T00:59:52.388Z,2.47
2023-03-12T01:02:19.190Z,2.33
2023-03-12T01:04:46.072Z,2.15
2023-03-12T01:07:13.051Z,1.98
2023-03-12T01:09:39.845Z,2.20
2023-03-12T01:12:07.103Z,1.98
2023-03-12T01:14:34.044Z,2.40
2023-03-12T01:17:01.017Z,2.55
2023-03-12T01:19:27.869Z,2.50
2023-03-12T01:21:54.626Z,3.10
2023-03-12T01:24:21.397Z,2.75
2023-03-12T01:26:48.166Z,2.17
2023-03-12T01:29:14.954Z,2.50
2023-03-12T01:31:41.872Z,2.42
2023-03-12T01:34:11.843Z,2.70
2023-03-12T01:36:38.668Z,2.58
2023-03-12T01:39:05.793Z,3.08
2023-03-12T01:41:33.853Z,2.58
2023-03-12T01:44:03.690Z,2.80
2023-03-12T01:46:39.975Z,2.88
2023-03-12T01:49:32.316Z,2.85
2023-03-12T01:52:07.747Z,2.83
2023-03-12T01:54:56.716Z,3.13
2023-03-12T01:57:53.568Z,3.42
2023-03-12T02:00:25.425Z,3.10
2023-03-12T02:02:59.469Z,3.65
2023-03-12T02:05:43.745Z,3.42
2023-03-12T02:08:12.610Z,3.47
2023-03-12T02:10:39.502Z,3.28
2023-03-12T02:13:07.033Z,3.20
2023-03-12T02:15:36.078Z,3.20
2023-03-12T02:18:08.442Z,2.90
2023-03-12T02:20:42.194Z,3.33
2023-03-12T02:23:31.629Z,3.67
2023-03-12T02:26:00.480Z,3.42
2023-03-12T02:28:29.576Z,3.30
2023-03-12T02:31:01.244Z,3.60
2023-03-12T02:33:28.342Z,3.00
2023-03-12T02:35:55.835Z,3.05
2023-03-12T02:38:36.641Z,3.05
2023-03-12T02:41:29.961Z,3.40
2023-03-12T02:44:20.064Z,3.10
2023-03-12T02:46:54.408Z,3.40
2023-03-12T02:49:25.453Z,3.42
2023-03-12T02:51:53.933Z,2.92
2023-03-12T02:54:22.515Z,3.45
2023-03-12T02:56:50.448Z,3.47
2023-03-12T02:59:20.733Z,3.00
2023-03-12T03:01:52.257Z,3.35
2023-03-12T03:04:19.082Z,3.60
2023-03-12T03:06:48.285Z,3.28
2023-03-12T03:09:15.461Z,3.25
2023-03-12T03:11:42.667Z,3.55
2023-03-12T03:14:10.177Z,3.40
2023-03-12T03:16:37.342Z,3.92
2023-03-12T03:19:04.802Z,3.88
2023-03-12T03:21:32.426Z,3.75
2023-03-12T03:23:59.323Z,4.03
2023-03-12T03:26:26.462Z,3.25
2023-03-12T03:28:53.772Z,4.35
2023-03-12T03:31:21.171Z,3.30
2023-03-12T03:33:48.507Z,3.22
2023-03-12T03:36:17.106Z,3.65
2023-03-12T03:38:49.098Z,3.10
2023-03-12T03:41:18.516Z,3.53
2023-03-12T03:43:47.079Z,3.00
2023-03-12T03:46:15.742Z,3.03
2023-03-12T03:48:42.876Z,3.40
2023-03-12T03:51:11.509Z,3.28
2023-03-12T03:53:38.520Z,3.42
2023-03-12T03:56:16.101Z,3.15
2023-03-12T03:58:43.105Z,3.28
2023-03-12T04:22:30.158Z,3.08
2023-03-12T04:24:56.970Z,3.25
2023-03-12T04:27:23.706Z,3.13
2023-03-12T04:29:50.440Z,3.50
2023-03-12T04:32:17.301Z,3.10
2023-03-12T04:34:44.069Z,3.22
2023-03-12T04:37:13.755Z,2.80
2023-03-12T04:39:41.715Z,3.00
2023-03-12T04:42:09.003Z,3.30
2023-03-12T04:44:36.312Z,3.45
2023-03-12T04:47:04.526Z,3.10
2023-03-12T04:49:31.297Z,3.35
2023-03-12T04:51:58.056Z,3.08
2023-03-12T04:54:24.790Z,2.92
2023-03-12T04:56:51.716Z,3.20
2023-03-12T04:59:18.449Z,3.17
2023-03-12T05:01:45.241Z,3.13
2023-03-12T05:04:12.038Z,3.70
2023-03-12T05:06:38.811Z,2.92
2023-03-12T05:09:05.543Z,3.30
2023-03-12T05:11:32.405Z,2.85
2023-03-12T05:13:59.110Z,2.95
2023-03-12T05:16:26.075Z,2.97
2023-03-12T05:18:52.839Z,3.53
2023-03-12T05:21:21.281Z,2.85
2023-03-12T05:23:48.606Z,2.60
2023-03-12T05:26:31.442Z,3.10
2023-03-12T05:29:00.096Z,2.75
2023-03-12T05:31:28.259Z,2.80
2023-03-12T05:33:55.031Z,3.13
2023-03-12T05:36:21.905Z,2.60
2023-03-12T05:38:48.654Z,2.55
2023-03-12T05:41:41.704Z,2.63
2023-03-12T05:44:13.486Z,2.30
2023-03-12T05:46:40.310Z,2.45
2023-03-12T05:49:07.049Z,2.42
2023-03-12T05:51:34.209Z,2.67
2023-03-12T05:54:01.625Z,2.63
2023-03-12T05:56:28.978Z,2.45
2023-03-12T05:58:55.786Z,2.42
2023-03-12T06:01:27.745Z,2.90
2023-03-12T06:03:54.815Z,2.75
2023-03-12T06:06:23.307Z,2.60
2023-03-12T06:08:51.583Z,2.83
2023-03-12T06:11:18.697Z,2.90
2023-03-12T06:13:45.460Z,3.10
2023-03-12T06:16:18.212Z,2.80
2023-03-12T06:18:44.991Z,2.60
2023-03-12T06:21:19.200Z,2.30
2023-03-12T06:23:47.159Z,2.65
2023-03-12T06:26:15.747Z,3.50
2023-03-12T06:28:43.052Z,2.63
2023-03-12T06:31:09.867Z,3.03
2023-03-12T06:33:36.609Z,2.42
2023-03-12T06:36:06.632Z,2.88
2023-03-12T06:38:34.345Z,3.00
2023-03-12T06:41:05.245Z,3.75
2023-03-12T06:43:34.086Z,2.85
2023-03-12T06:46:02.107Z,3.10
2023-03-12T06:48:33.419Z,2.70
2023-03-12T06:51:00.264Z,2.87
2023-03-12T06:53:27.562Z,3.10
2023-03-12T06:55:54.294Z,2.92
2023-03-12T06:58:21.123Z,3.05
2023-03-12T07:00:48.160Z,3.65
2023-03-12T07:03:15.332Z,3.50
2023-03-12T07:05:50.856Z,3.58
2023-03-12T07:08:18.644Z,3.92
2023-03-12T07:10:45.991Z,3.88
2023-03-12T07:13:13.511Z,3.70
2023-03-12T07:15:41.355Z,3.80
2023-03-12T07:18:11.430Z,3.20
2023-03-12T07:20:41.624Z,3.83
2023-03-12T07:23:09.107Z,3.42
2023-03-12T07:25:41.703Z,3.92
2023-03-12T07:28:09.482Z,3.58
2023-03-12T07:30:36.747Z,3.35
2023-03-12T07:33:05.824Z,3.83
2023-03-12T07:35:33.296Z,3.60
2023-03-12T07:38:01.295Z,3.00
2023-03-12T07:40:28.826Z,3.20
2023-03-12T07:42:56.065Z,3.33
2023-03-12T07:45:23.228Z,3.17
2023-03-12T07:47:50.261Z,3.10
2023-03-12T07:50:18.700Z,2.88
2023-03-12T07:52:46.787Z,3.22
2023-03-12T07:55:14.129Z,3.15
2023-03-12T07:57:41.212Z,3.00
2023-03-12T08:00:10.386Z,3.10
2023-03-12T08:02:37.568Z,3.15
2023-03-12T08:05:05.099Z,4.05
2023-03-12T08:07:32.455Z,3.33
2023-03-12T08:10:00.270Z,3.45
2023-03-12T08:12:28.153Z,4.05
2023-03-12T08:14:55.334Z,3.50
2023-03-12T08:17:22.202Z,3.40
2023-03-12T08:19:48.943Z,4.18
2023-03-12T08:22:16.078Z,3.95
2023-03-12T08:24:44.047Z,4.15
2023-03-12T08:27:12.271Z,3.55
2023-03-12T08:29:40.654Z,4.90
2023-03-12T08:32:10.488Z,3.60
2023-03-12T08:34:37.985Z,3.55
2023-03-12T08:37:05.803Z,4.03
2023-03-12T08:39:33.388Z,3.65
2023-03-12T08:42:00.845Z,4.10
2023-03-12T08:44:27.989Z,3.95
2023-03-12T08:46:55.039Z,3.75
2023-03-12T08:49:22.951Z,4.32
2023-03-12T08:51:51.775Z,3.35
2023-03-12T08:54:20.227Z,3.83
2023-03-12T08:56:51.892Z,4.05
2023-03-12T08:59:20.610Z,3.78
2023-03-12T09:01:47.830Z,3.05
2023-03-12T09:04:14.664Z,3.15
2023-03-12T09:06:41.461Z,3.45
2023-03-12T09:09:08.991Z,3.60
2023-03-12T09:11:39.507Z,4.03
2023-03-12T09:16:53.231Z,3.88
2023-03-12T09:19:20.508Z,3.58
2023-03-12T09:21:47.244Z,3.30
2023-03-12T09:24:13.971Z,3.38
2023-03-12T09:26:40.769Z,4.20
2023-03-12T09:29:07.702Z,4.15
2023-03-12T09:31:36.266Z,3.92
2023-03-12T09:34:04.616Z,4.75
2023-03-12T09:36:32.243Z,4.75
2023-03-12T09:38:59.058Z,4.90
2023-03-12T09:41:30.593Z,5.00
2023-03-12T09:44:04.232Z,5.22
2023-03-12T09:47:16.542Z,5.38
2023-03-12T09:49:57.011Z,5.20
2023-03-12T09:53:03.677Z,4.85
2023-03-12T09:55:38.875Z,5.28
2023-03-12T09:58:14.288Z,5.88
2023-03-12T10:00:41.247Z,5.45
2023-03-12T10:03:29.929Z,5.50
2023-03-12T10:06:14.958Z,6.32
2023-03-12T10:08:54.788Z,5.78
2023-03-12T10:12:23.642Z,6.13
2023-03-12T10:15:18.071Z,7.05
2023-03-12T10:17:53.817Z,6.07
2023-03-12T10:20:35.932Z,6.18
2023-03-12T10:23:12.937Z,6.50
2023-03-12T10:25:44.972Z,7.10
2023-03-12T10:28:26.237Z,6.63
2023-03-12T10:30:58.245Z,7.57
2023-03-12T10:36:39.932Z,6.22
2023-03-12T10:39:18.154Z,6.70
2023-03-12T10:41:47.984Z,7.07
2023-03-12T10:44:21.522Z,9.80
2023-03-12T10:46:59.853Z,8.93
2023-03-12T10:49:31.789Z,7.88
2023-03-12T10:52:20.252Z,9.48
2023-03-12T10:54:51.268Z,8.68
2023-03-12T10:57:20.754Z,8.57
2023-03-12T10:59:49.783Z,8.63
2023-03-12T11:03:09.021Z,8.70
2023-03-12T11:05:48.816Z,9.15
2023-03-12T11:08:29.491Z,8.10
2023-03-12T11:10:58.964Z,9.13
2023-03-12T11:13:41.099Z,8.20
2023-03-12T11:16:17.035Z,9.23
2023-03-12T11:19:03.571Z,8.23
2023-03-12T11:21:40.248Z,7.95
2023-03-12T11:24:16.024Z,7.22
2023-03-12T11:27:05.803Z,7.05
2023-03-12T11:29:39.856Z,7.15
2023-03-12T11:32:19.712Z,8.45
2023-03-12T11:34:50.191Z,7.60
2023-03-12T11:37:42.760Z,9.73
2023-03-12T11:40:47.723Z,8.05
2023-03-12T11:43:57.612Z,6.90
2023-03-12T11:47:10.568Z,6.80
2023-03-12T11:50:25.575Z,6.57
2023-03-12T11:53:26.667Z,6.60
2023-03-12T11:56:29.871Z,6.85
2023-03-12T11:59:45.806Z,6.30
2023-03-12T12:02:43.856Z,10.10
2023-03-12T12:05:19.605Z,17.40
2023-03-12T12:08:14.780Z,13.57
2023-03-12T12:11:13.778Z,12.73
2023-03-12T12:14:53.256Z,16.67
2023-03-12T12:17:41.212Z,9.40
2023-03-12T12:20:35.946Z,7.75
2023-03-12T12:23:18.881Z,6.60
2023-03-12T12:26:08.554Z,5.40
2023-03-12T12:29:01.451Z,5.35
2023-03-12T12:31:51.341Z,4.82
2023-03-12T12:34:53.324Z,4.22
2023-03-12T12:37:50.100Z,5.85
2023-03-12T12:40:29.620Z,4.22
2023-03-12T12:43:29.799Z,4.53
2023-03-12T12:46:16.393Z,4.63
2023-03-12T12:48:55.449Z,4.35
2023-03-12T12:51:33.271Z,3.80
2023-03-12T12:54:21.620Z,3.75
2023-03-12T12:57:15.371Z,3.92
2023-03-12T13:00:19.788Z,3.90
2023-03-12T13:02:47.990Z,3.88
2023-03-12T13:05:25.907Z,4.55
2023-03-12T13:07:53.475Z,4.35
2023-03-12T13:10:48.630Z,4.32
2023-03-12T13:13:27.141Z,4.05
2023-03-12T13:16:34.818Z,5.55
2023-03-12T13:19:13.698Z,4.25
2023-03-12T13:21:54.132Z,4.22
2023-03-12T13:24:40.485Z,3.83
2023-03-12T13:27:25.719Z,4.13
2023-03-12T13:29:57.106Z,5.13
2023-03-12T13:32:49.774Z,4.07
2023-03-12T13:35:16.468Z,4.55
2023-03-12T13:37:52.301Z,4.43
2023-03-12T13:40:40.174Z,5.60
2023-03-12T13:43:16.676Z,6.53
2023-03-12T13:46:00.914Z,4.47
2023-03-12T13:48:28.208Z,4.97
2023-03-12T13:50:59.165Z,5.53
2023-03-12T13:53:50.697Z,6.53
2023-03-12T13:56:20.733Z,4.22
2023-03-12T13:59:03.642Z,5.22
2023-03-12T14:01:41.755Z,4.55
2023-03-12T14:04:40.744Z,5.40
2023-03-12T14:07:36.179Z,4.05
2023-03-12T14:10:17.617Z,4.47
2023-03-12T14:12:55.836Z,4.97
2023-03-12T14:15:40.164Z,5.07
2023-03-12T14:18:23.299Z,4.85
2023-03-12T14:20:58.610Z,4.35
2023-03-12T14:23:35.812Z,4.78
2023-03-12T14:26:06.444Z,5.25
2023-03-12T14:28:41.153Z,4.85
2023-03-12T14:31:17.440Z,5.13
2023-03-12T14:34:07.213Z,5.05
2023-03-12T14:37:05.825Z,5.35
2023-03-12T14:39:43.130Z,4.68
2023-03-12T14:42:11.811Z,4.22
2023-03-12T14:44:39.626Z,5.18
2023-03-12T14:47:12.433Z,4.57
2023-03-12T14:49:45.416Z,5.40
2023-03-12T14:52:15.124Z,5.70
2023-03-12T14:55:11.480Z,5.03
2023-03-12T14:57:38.262Z,5.47
2023-03-12T15:00:14.187Z,4.72
2023-03-12T15:02:43.489Z,4.65
2023-03-12T15:05:20.569Z,5.25
2023-03-12T15:07:49.333Z,5.90
2023-03-12T15:10:25.576Z,4.97
2023-03-12T15:12:55.773Z,5.15
2023-03-12T15:15:47.721Z,4.38
2023-03-12T15:18:30.202Z,5.25
2023-03-12T15:20:59.253Z,3.97
2023-03-12T15:23:29.338Z,4.38
2023-03-12T15:26:20.785Z,3.90
2023-03-12T15:29:26.270Z,3.87
2023-03-12T15:31:59.891Z,4.13
2023-03-12T15:34:38.700Z,4.63
2023-03-12T15:37:34.776Z,4.22
2023-03-12T15:40:06.665Z,4.78
2023-03-12T15:45:07.905Z,4.32
2023-03-12T15:47:40.309Z,4.30
2023-03-12T15:50:32.418Z,5.55
2023-03-12T15:53:12.751Z,4.47
2023-03-12T15:55:41.689Z,4.43
2023-03-12T15:58:29.826Z,4.57
2023-03-12T16:01:17.864Z,4.50
2023-03-12T16:03:45.897Z,3.83
2023-03-12T16:06:19.578Z,4.07
2023-03-12T16:09:04.088Z,4.05
2023-03-12T16:11:33.779Z,4.43
2023-03-12T16:14:24.477Z,4.30
2023-03-12T16:16:51.498Z,4.03
2023-03-12T16:19:21.625Z,3.85
2023-03-12T16:21:49.005Z,3.80
2023-03-12T16:24:16.538Z,4.80
2023-03-12T16:26:52.287Z,3.50
2023-03-12T16:29:20.210Z,4.07
2023-03-12T16:31:55.767Z,3.50
2023-03-12T16:34:22.779Z,4.15
2023-03-12T16:36:49.848Z,4.50
2023-03-12T16:39:18.751Z,4.57
2023-03-12T16:41:46.549Z,3.60
2023-03-12T16:44:18.824Z,3.22
2023-03-12T16:46:46.302Z,3.83
2023-03-12T16:49:16.801Z,3.53
2023-03-12T16:51:43.688Z,4.25
2023-03-12T16:54:12.199Z,4.53
2023-03-12T16:56:44.914Z,3.78
2023-03-12T16:59:27.073Z,3.08
2023-03-12T17:04:20.518Z,3.92
2023-03-12T17:06:47.279Z,4.20
2023-03-12T17:09:14.022Z,3.33
2023-03-12T17:11:42.032Z,4.35
2023-03-12T17:14:19.123Z,3.38
2023-03-12T17:16:45.967Z,3.53
2023-03-12T17:19:12.695Z,3.88
2023-03-12T17:21:39.799Z,4.10
2023-03-12T17:24:07.012Z,3.20
2023-03-12T17:26:34.263Z,3.63
2023-03-12T17:29:00.998Z,3.08
2023-03-12T17:31:27.757Z,3.95
2023-03-12T17:33:54.527Z,3.63
2023-03-12T17:36:21.327Z,3.72
2023-03-12T17:38:50.712Z,4.30
2023-03-12T17:41:26.100Z,4.47
2023-03-12T17:43:54.608Z,3.42
2023-03-12T17:46:21.401Z,4.75
2023-03-12T17:48:48.189Z,3.08
2023-03-12T17:51:14.971Z,3.60
2023-03-12T17:53:44.621Z,2.97
2023-03-12T17:56:12.547Z,3.35
2023-03-12T17:58:39.507Z,3.55
2023-03-12T18:01:06.287Z,3.35
2023-03-12T18:03:33.050Z,3.10
2023-03-12T18:06:00.273Z,4.35
2023-03-12T18:08:27.148Z,3.72
2023-03-12T18:10:54.020Z,2.67
2023-03-12T18:13:20.985Z,4.53
2023-03-12T18:15:53.924Z,4.65
2023-03-12T18:18:21.851Z,3.20
2023-03-12T18:20:51.834Z,2.90
2023-03-12T18:23:19.687Z,3.20
2023-03-12T18:25:46.904Z,3.42
2023-03-12T18:28:15.179Z,3.30
2023-03-12T18:30:42.370Z,4.00
2023-03-12T18:33:09.099Z,3.63
2023-03-12T18:35:35.976Z,3.10
2023-03-12T18:38:02.783Z,2.58
2023-03-12T18:40:29.914Z,3.55
2023-03-12T18:43:03.101Z,2.95
2023-03-12T18:45:30.863Z,3.97
2023-03-12T18:47:57.784Z,3.38
2023-03-12T18:50:24.687Z,3.35
2023-03-12T18:52:51.516Z,3.50
2023-03-12T18:55:18.276Z,3.00
2023-03-12T18:57:47.498Z,3.15
2023-03-12T19:00:19.853Z,2.90
2023-03-12T19:02:48.201Z,3.03
2023-03-12T19:05:15.970Z,3.08
2023-03-12T19:07:42.901Z,3.00
2023-03-12T19:10:11.576Z,3.30
2023-03-12T19:12:50.823Z,3.90
2023-03-12T19:15:19.124Z,3.40
2023-03-12T19:17:46.679Z,3.08
2023-03-12T19:20:14.013Z,3.38
2023-03-12T19:22:40.730Z,3.35
2023-03-12T19:25:08.096Z,3.63
2023-03-12T19:27:34.817Z,2.97
2023-03-12T19:30:01.784Z,2.90
2023-03-12T19:32:40.632Z,3.22
2023-03-12T19:35:11.226Z,3.57
2023-03-12T19:37:38.093Z,3.35
2023-03-12T19:40:05.892Z,2.72
2023-03-12T19:42:33.145Z,3.38
2023-03-12T19:45:00.022Z,3.38
2023-03-12T19:47:27.990Z,3.05
2023-03-12T19:49:54.701Z,3.30
2023-03-12T19:52:21.525Z,4.70
2023-03-12T19:55:01.557Z,3.63
2023-03-12T19:57:30.847Z,3.30
2023-03-12T19:59:57.568Z,3.40
2023-03-12T20:02:24.472Z,3.95
2023-03-12T20:04:51.320Z,4.35
2023-03-12T20:07:18.384Z,3.80
2023-03-12T20:09:45.230Z,3.78
2023-03-12T20:12:12.362Z,3.40
2023-03-12T20:14:41.373Z,3.47
2023-03-12T20:17:09.192Z,3.70
2023-03-12T20:19:35.973Z,4.30
2023-03-12T20:22:02.696Z,4.00
2023-03-12T20:24:29.432Z,3.92
2023-03-12T20:26:56.162Z,4.07
2023-03-12T20:29:23.033Z,3.40
2023-03-12T20:31:50.803Z,4.03
2023-03-12T20:34:17.801Z,4.38
2023-03-12T20:36:44.579Z,3.88
2023-03-12T20:39:12.548Z,4.90
2023-03-12T20:41:39.577Z,3.85
2023-03-12T20:44:06.355Z,4.13
2023-03-12T20:46:33.243Z,3.85
2023-03-12T20:49:00.146Z,3.53
2023-03-12T20:51:26.847Z,3.92
2023-03-12T20:53:53.569Z,4.05
2023-03-12T20:56:20.305Z,3.33
2023-03-12T20:58:47.029Z,3.83
2023-03-12T21:01:13.935Z,3.72
2023-03-12T21:03:40.684Z,3.55
2023-03-12T21:06:07.641Z,2.85
2023-03-12T21:08:34.744Z,4.10
2023-03-12T21:11:05.342Z,3.15
2023-03-12T21:13:32.048Z,2.72
2023-03-12T21:15:58.929Z,3.67
2023-03-12T21:18:25.688Z,4.05
2023-03-12T21:20:52.709Z,3.13
2023-03-12T21:23:19.422Z,3.80
2023-03-12T21:25:46.399Z,3.08
2023-03-12T21:28:13.253Z,3.33
2023-03-12T21:30:40.043Z,3.17
2023-03-12T21:33:07.617Z,3.67
2023-03-12T21:35:34.448Z,3.30
2023-03-12T21:38:02.417Z,3.55
2023-03-12T21:40:29.218Z,4.03
2023-03-12T21:42:56.020Z,3.42
2023-03-12T21:45:22.933Z,3.10
2023-03-12T21:47:49.720Z,2.80
2023-03-12T21:50:16.943Z,2.80
2023-03-12T21:52:47.732Z,3.53
2023-03-12T21:55:17.737Z,3.28
2023-03-12T21:57:45.521Z,3.30
2023-03-12T22:00:14.097Z,3.45
2023-03-12T22:02:43.775Z,3.90
2023-03-12T22:05:11.795Z,2.67
2023-03-12T22:07:38.872Z,2.60
2023-03-12T22:10:07.290Z,3.75
2023-03-12T22:12:34.000Z,3.80
2023-03-12T22:15:00.744Z,3.38
2023-03-12T22:17:27.800Z,3.50
2023-03-12T22:19:54.601Z,3.30
2023-03-12T22:22:21.333Z,3.08
2023-03-12T22:24:48.066Z,2.90
2023-03-12T22:27:14.769Z,3.05
2023-03-12T22:29:43.361Z,3.35
2023-03-12T22:32:10.139Z,2.78
2023-03-12T22:34:37.460Z,3.58
2023-03-12T22:37:04.200Z,3.05
2023-03-12T22:39:31.028Z,2.83
2023-03-12T22:41:57.792Z,3.33
2023-03-12T22:44:24.528Z,2.50
2023-03-12T22:46:52.025Z,3.00
2023-03-12T22:49:18.864Z,3.05
2023-03-12T22:51:45.656Z,2.97
2023-03-12T22:54:12.447Z,2.50
2023-03-12T22:56:39.941Z,2.53
2023-03-12T22:59:06.677Z,2.47
2023-03-12T23:01:33.502Z,3.30
2023-03-12T23:04:00.480Z,2.55
2023-03-12T23:06:29.943Z,2.83
2023-03-12T23:08:57.480Z,3.63
2023-03-12T23:11:26.672Z,2.00
2023-03-12T23:13:54.343Z,2.40
2023-03-12T23:16:25.137Z,2.78
2023-03-12T23:18:52.389Z,2.97
2023-03-12T23:21:22.580Z,2.78
2023-03-12T23:23:50.453Z,2.25
2023-03-12T23:26:28.196Z,2.80
2023-03-12T23:28:56.903Z,2.42
2023-03-12T23:31:24.682Z,2.42
2023-03-12T23:33:51.512Z,2.40
2023-03-12T23:36:21.095Z,2.38
2023-03-12T23:38:48.972Z,2.92
2023-03-12T23:41:19.953Z,2.30
2023-03-12T23:43:47.102Z,2.80
2023-03-12T23:46:16.774Z,3.47
2023-03-12T23:48:45.387Z,2.72
2023-03-12T23:51:26.290Z,2.78
2023-03-12T23:53:58.213Z,2.50
2023-03-12T23:56:27.685Z,2.53
2023-03-12T23:58:54.464Z,2.85
